Time;durP1;ratioP1;P1;durP2;ratioP2;P2;SDS_P1;SDS_P2;PMS_P1;PMS_P2;Temp;Humidity;BMP_temperature;BMP_pressure;BME280_temperature;BME280_humidity;BME280_pressure;Samples;Min_cycle;Max_cycle;Signal;HPM_P1;HPM_P2
2022/03/30 00:01:30;;;;;;;7.63;3.93;;;;;;;5.78;61.75;100341.16;5004116;28;20739;-57
2022/03/30 00:03:56;;;;;;;5.83;3.17;;;;;;;5.75;62.22;100332.44;5001777;28;20275;-57
2022/03/30 00:06:23;;;;;;;5.70;2.97;;;;;;;5.75;61.54;100337.66;5002254;28;20257;-57
2022/03/30 00:08:50;;;;;;;7.37;2.77;;;;;;;5.72;61.60;100337.63;5002640;28;20237;-56
2022/03/30 00:11:17;;;;;;;8.97;3.60;;;;;;;5.71;60.99;100335.00;5001408;28;20229;-57
2022/03/30 00:13:43;;;;;;;6.30;2.67;;;;;;;5.66;61.01;100332.34;5001537;28;20288;-57
2022/03/30 00:16:12;;;;;;;10.03;3.00;;;;;;;5.64;61.12;100334.03;5003412;28;20229;-57
2022/03/30 00:18:38;;;;;;;4.40;2.87;;;;;;;5.61;61.22;100326.19;4999780;28;20229;-57
2022/03/30 00:21:05;;;;;;;6.47;2.53;;;;;;;5.59;60.76;100324.44;5004645;28;20245;-57
2022/03/30 00:23:31;;;;;;;7.13;2.90;;;;;;;5.55;60.73;100323.53;4998941;28;20233;-56
2022/03/30 00:25:59;;;;;;;4.90;2.67;;;;;;;5.54;60.20;100319.16;4999863;28;20292;-57
2022/03/30 00:28:27;;;;;;;4.20;2.73;;;;;;;5.56;60.46;100320.06;5003245;28;20248;-59
2022/03/30 00:30:54;;;;;;;5.07;3.00;;;;;;;5.54;60.51;100315.69;5011299;28;20232;-56
2022/03/30 00:33:20;;;;;;;6.40;3.20;;;;;;;5.54;60.47;100333.91;5001121;28;20241;-57
2022/03/30 00:35:47;;;;;;;3.87;2.60;;;;;;;5.54;60.75;100332.16;5002667;28;20260;-59
2022/03/30 00:38:13;;;;;;;5.83;2.63;;;;;;;5.56;61.12;100320.06;4999015;28;20348;-57
2022/03/30 00:40:40;;;;;;;5.73;2.67;;;;;;;5.62;60.89;100322.75;4999729;28;20245;-57
2022/03/30 00:43:07;;;;;;;7.13;3.60;;;;;;;5.61;61.26;100328.78;5003897;28;20704;-57
2022/03/30 00:45:34;;;;;;;7.90;3.00;;;;;;;5.59;61.46;100325.31;4996089;28;20652;-57
2022/03/30 00:48:00;;;;;;;4.73;2.20;;;;;;;5.58;61.36;100322.66;5002216;28;20272;-57
2022/03/30 00:50:26;;;;;;;12.63;2.87;;;;;;;5.60;61.51;100319.25;5000557;28;20264;-57
2022/03/30 00:52:55;;;;;;;5.17;3.17;;;;;;;5.59;62.11;100320.09;5003273;28;20229;-56
2022/03/30 00:55:21;;;;;;;5.30;3.43;;;;;;;5.62;61.97;100320.16;5000297;28;20279;-57
2022/03/30 00:57:49;;;;;;;9.70;3.07;;;;;;;5.56;61.60;100325.28;5003470;28;20244;-57
2022/03/30 01:00:17;;;;;;;4.23;2.60;;;;;;;5.59;61.72;100317.50;4999738;28;20244;-57
2022/03/30 01:02:45;;;;;;;5.67;2.73;;;;;;;5.60;62.58;100316.63;5001227;28;20236;-56
2022/03/30 01:05:12;;;;;;;7.30;3.03;;;;;;;5.56;63.06;100314.84;4994101;28;20287;-57
2022/03/30 01:07:39;;;;;;;9.77;2.60;;;;;;;5.56;63.35;100313.97;5003220;28;20306;-57
2022/03/30 01:10:07;;;;;;;4.40;2.43;;;;;;;5.53;63.06;100313.94;5004345;28;20237;-57
2022/03/30 01:12:36;;;;;;;4.93;3.07;;;;;;;5.46;63.90;100312.97;5005663;28;20733;-57
2022/03/30 01:15:03;;;;;;;8.17;2.67;;;;;;;5.37;63.98;100307.66;4999599;28;20237;-57
2022/03/30 01:17:31;;;;;;;7.57;2.93;;;;;;;5.29;64.67;100304.06;5003532;28;20304;-57
2022/03/30 01:19:57;;;;;;;4.77;3.13;;;;;;;5.24;64.97;100302.28;5001397;28;20255;-57
2022/03/30 01:22:25;;;;;;;5.50;2.40;;;;;;;5.24;65.04;100307.50;5001437;28;20245;-60
2022/03/30 01:24:52;;;;;;;5.23;2.83;;;;;;;5.26;65.98;100303.19;5001899;28;20271;-59
2022/03/30 01:27:18;;;;;;;5.30;3.17;;;;;;;5.28;65.76;100302.34;5004023;28;20238;-56
2022/03/30 01:32:29;;;;;;;3.90;2.13;;;;;;;5.26;65.96;100302.31;5001074;28;20248;-56
2022/03/30 01:34:57;;;;;;;5.87;3.80;;;;;;;5.35;65.60;100298.97;5001436;28;20225;-57
2022/03/30 01:37:28;;;;;;;4.83;2.80;;;;;;;5.28;65.06;100294.53;5003683;28;20241;-57
2022/03/30 01:39:55;;;;;;;7.60;3.33;;;;;;;5.23;65.43;100295.34;4998776;28;20237;-56
2022/03/30 01:42:21;;;;;;;4.00;2.60;;;;;;;5.26;65.34;100294.50;5003402;28;20228;-57
2022/03/30 01:44:49;;;;;;;5.97;2.87;;;;;;;5.19;65.98;100288.31;5003526;28;20642;-57
2022/03/30 01:47:15;;;;;;;9.17;4.13;;;;;;;5.15;67.20;100283.94;5003931;28;20766;-56
2022/03/30 01:49:42;;;;;;;10.13;4.07;;;;;;;5.09;67.52;100282.97;5001435;28;20237;-56
2022/03/30 01:52:09;;;;;;;9.80;5.23;;;;;;;5.08;68.72;100283.84;5001437;28;20256;-56
2022/03/30 01:54:39;;;;;;;10.03;4.43;;;;;;;4.99;69.57;100277.66;5000516;28;20261;-56
2022/03/30 01:57:06;;;;;;;9.30;4.20;;;;;;;4.90;69.68;100284.44;5001739;28;20244;-56
2022/03/30 01:59:33;;;;;;;6.93;4.20;;;;;;;4.86;68.99;100273.13;5002741;28;20243;-57
2022/03/30 02:01:59;;;;;;;3.97;3.57;;;;;;;4.84;68.67;100273.94;5002219;28;20237;-56
2022/03/30 02:04:26;;;;;;;6.73;3.83;;;;;;;4.82;69.30;100275.69;5001322;28;20229;-55
2022/03/30 02:06:52;;;;;;;8.20;3.60;;;;;;;4.84;69.40;100271.34;5001232;28;20788;-57
2022/03/30 02:09:20;;;;;;;11.23;4.93;;;;;;;4.83;68.98;100272.22;5000987;28;20723;-58
2022/03/30 02:11:50;;;;;;;8.73;3.47;;;;;;;4.83;69.07;100274.81;5002704;28;20268;-58
2022/03/30 02:14:16;;;;;;;8.47;3.70;;;;;;;4.85;68.90;100267.91;4997676;28;20237;-57
2022/03/30 02:16:43;;;;;;;8.33;4.03;;;;;;;4.85;68.61;100260.13;4997801;28;20240;-57
2022/03/30 02:19:11;;;;;;;9.60;3.90;;;;;;;4.88;68.61;100265.34;5003172;28;20248;-57
2022/03/30 02:21:38;;;;;;;8.70;3.83;;;;;;;4.83;68.42;100264.41;5001646;28;20582;-57
2022/03/30 02:24:06;;;;;;;9.43;3.63;;;;;;;4.82;69.24;100260.06;5003495;28;20231;-57
2022/03/30 02:26:33;;;;;;;8.23;4.53;;;;;;;4.80;69.72;100262.63;4999716;28;20652;-57
2022/03/30 02:29:00;;;;;;;7.67;4.10;;;;;;;4.79;69.95;100259.16;5003093;28;20283;-57
2022/03/30 02:31:27;;;;;;;7.57;4.00;;;;;;;4.72;70.83;100259.91;4994844;28;20282;-57
2022/03/30 02:33:53;;;;;;;9.17;3.37;;;;;;;4.66;70.80;100257.22;5006266;28;20233;-55
2022/03/30 02:36:20;;;;;;;7.23;4.63;;;;;;;4.60;71.49;100246.75;5000006;28;20291;-57
2022/03/30 02:38:47;;;;;;;4.83;4.10;;;;;;;4.62;70.45;100257.16;5007178;28;20237;-57
2022/03/30 02:41:13;;;;;;;6.27;4.03;;;;;;;4.60;70.55;100258.84;4993839;28;20260;-58
2022/03/30 02:43:40;;;;;;;12.83;4.93;;;;;;;4.55;70.01;100256.19;4999198;28;20287;-56
2022/03/30 02:46:08;;;;;;;7.40;3.03;;;;;;;4.53;69.31;100263.09;5002010;28;20249;-57
2022/03/30 02:48:35;;;;;;;9.87;4.10;;;;;;;4.50;69.33;100268.25;5006102;28;20286;-57
2022/03/30 02:51:04;;;;;;;7.60;3.67;;;;;;;4.48;69.34;100262.16;5003169;28;20248;-56
2022/03/30 02:53:31;;;;;;;6.60;3.33;;;;;;;4.45;68.98;100267.28;5004801;28;20490;-57
2022/03/30 02:55:58;;;;;;;9.23;4.10;;;;;;;4.42;69.72;100272.44;4996880;28;20326;-57
2022/03/30 02:58:25;;;;;;;8.80;3.40;;;;;;;4.37;69.76;100268.91;5006070;28;20236;-60
2022/03/30 03:00:51;;;;;;;7.93;3.73;;;;;;;4.35;70.08;100267.97;5006332;28;20327;-56
2022/03/30 03:03:19;;;;;;;5.63;2.83;;;;;;;4.31;70.46;100259.25;5004885;28;20236;-56
2022/03/30 03:05:45;;;;;;;9.00;3.37;;;;;;;4.34;69.85;100256.72;5005085;28;20727;-57
2022/03/30 03:08:13;;;;;;;9.20;3.53;;;;;;;4.40;70.16;100255.97;5005932;28;20241;-57
2022/03/30 03:10:44;;;;;;;8.53;3.00;;;;;;;4.37;69.72;100261.09;5003686;28;20239;-58
2022/03/30 03:13:11;;;;;;;7.43;3.00;;;;;;;4.34;69.97;100255.84;5008150;28;20748;-57
2022/03/30 03:15:38;;;;;;;10.70;2.80;;;;;;;4.32;70.29;100255.84;5006468;28;20229;-56
2022/03/30 03:18:05;;;;;;;6.10;3.00;;;;;;;4.31;70.07;100257.53;5005194;28;20229;-57
2022/03/30 03:20:34;;;;;;;7.67;3.47;;;;;;;4.33;70.41;100256.72;5000991;28;20248;-57
2022/03/30 03:23:02;;;;;;;7.03;3.03;;;;;;;4.31;70.35;100244.53;4998104;28;20252;-57
2022/03/30 03:25:29;;;;;;;4.50;3.07;;;;;;;4.28;71.09;100244.53;5005500;28;20243;-56
2022/03/30 03:27:56;;;;;;;9.63;4.33;;;;;;;4.27;70.85;100252.28;5002262;28;20237;-57
2022/03/30 03:30:22;;;;;;;5.17;3.10;;;;;;;4.29;71.10;100243.66;5013362;28;20244;-57
2022/03/30 03:32:49;;;;;;;9.13;4.37;;;;;;;4.24;71.38;100252.22;5004400;28;20233;-56
2022/03/30 03:35:15;;;;;;;8.43;4.20;;;;;;;4.15;72.15;100247.75;5001079;28;20919;-57
2022/03/30 03:37:44;;;;;;;7.10;3.37;;;;;;;4.16;71.91;100243.44;5005113;28;20307;-56
2022/03/30 03:40:11;;;;;;;8.90;3.30;;;;;;;4.19;71.80;100246.94;5004454;28;20289;-56
2022/03/30 03:42:38;;;;;;;9.93;3.73;;;;;;;4.16;72.21;100249.50;5004010;28;20756;-57
2022/03/30 03:45:06;;;;;;;9.03;3.47;;;;;;;4.12;71.82;100249.44;5005960;28;20641;-56
2022/03/30 03:47:33;;;;;;;8.10;3.63;;;;;;;4.03;72.81;100245.81;5004323;28;20233;-57
2022/03/30 03:49:59;;;;;;;6.87;3.37;;;;;;;3.94;74.00;100244.78;5000454;28;20326;-57
2022/03/30 03:52:26;;;;;;;7.23;3.60;;;;;;;3.89;74.77;100236.88;5003587;28;20323;-57
2022/03/30 03:54:54;;;;;;;8.83;3.27;;;;;;;3.87;73.93;100249.00;5005446;28;20240;-56
2022/03/30 03:57:20;;;;;;;9.43;3.27;;;;;;;3.86;74.13;100243.75;5021922;23;20663;-64
2022/03/30 03:59:46;;;;;;;8.37;4.20;;;;;;;3.86;75.14;100256.72;5025137;28;20705;-64
2022/03/30 04:02:13;;;;;;;11.37;4.50;;;;;;;3.83;75.53;100260.19;5025427;28;20591;-63
2022/03/30 04:04:39;;;;;;;11.77;4.00;;;;;;;3.80;74.65;100250.59;5025706;28;20301;-62
2022/03/30 04:07:06;;;;;;;10.10;4.30;;;;;;;3.81;75.18;100254.94;5025317;28;20295;-64
2022/03/30 04:09:33;;;;;;;10.03;3.83;;;;;;;3.84;74.65;100254.13;5023632;28;20255;-65
2022/03/30 04:12:01;;;;;;;9.43;3.37;;;;;;;3.84;74.15;100254.13;5016561;28;20301;-65
2022/03/30 04:14:27;;;;;;;8.57;3.30;;;;;;;3.82;74.56;100259.28;5025028;28;20227;-65
2022/03/30 04:16:53;;;;;;;5.00;3.60;;;;;;;3.80;75.29;100257.50;5025531;28;20240;-65
2022/03/30 04:19:20;;;;;;;5.53;3.40;;;;;;;3.79;75.10;100254.06;5024680;28;20237;-64
2022/03/30 04:21:46;;;;;;;4.93;3.37;;;;;;;3.76;74.55;100258.31;5025147;28;20347;-64
2022/03/30 04:24:13;;;;;;;8.50;3.30;;;;;;;3.75;75.22;100248.75;5024305;28;20290;-64
2022/03/30 04:26:39;;;;;;;6.67;2.83;;;;;;;3.76;75.06;100246.19;5023863;28;20232;-62
2022/03/30 04:29:07;;;;;;;6.03;3.03;;;;;;;3.81;75.10;100243.69;5024854;28;20719;-65
2022/03/30 04:31:34;;;;;;;6.97;3.37;;;;;;;3.82;75.44;100235.03;5024695;28;20278;-65
2022/03/30 04:34:00;;;;;;;4.70;2.97;;;;;;;3.83;76.26;100232.47;5025065;28;20240;-64
2022/03/30 04:36:27;;;;;;;14.37;4.23;;;;;;;3.87;75.75;100230.81;5022932;28;20237;-64
2022/03/30 04:38:54;;;;;;;10.30;4.13;;;;;;;3.91;76.25;100231.75;5024469;28;20302;-64
2022/03/30 04:41:20;;;;;;;20.97;3.90;;;;;;;3.95;75.95;100230.94;5022692;28;20311;-64
2022/03/30 04:43:47;;;;;;;6.17;3.43;;;;;;;3.92;75.89;100228.28;5017028;28;20769;-64
2022/03/30 04:46:14;;;;;;;6.40;3.70;;;;;;;3.91;76.94;100229.16;5022582;28;20241;-64
2022/03/30 04:48:41;;;;;;;6.20;3.40;;;;;;;3.85;76.57;100229.91;5024089;28;20236;-64
2022/03/30 04:51:07;;;;;;;8.63;4.37;;;;;;;3.85;76.66;100231.63;5024522;28;20232;-65
2022/03/30 04:53:34;;;;;;;6.00;3.37;;;;;;;3.87;76.63;100233.41;5023631;28;20228;-64
2022/03/30 04:56:00;;;;;;;10.40;4.40;;;;;;;3.90;77.15;100228.28;5020334;28;20825;-65
2022/03/30 04:58:27;;;;;;;11.10;4.10;;;;;;;3.97;76.14;100226.66;5024109;28;20240;-65
2022/03/30 05:00:53;;;;;;;9.27;3.73;;;;;;;4.04;75.20;100228.53;5023418;28;20239;-64
2022/03/30 05:03:21;;;;;;;9.00;3.17;;;;;;;4.03;75.08;100230.22;5023123;28;20260;-64
2022/03/30 05:05:47;;;;;;;4.70;2.90;;;;;;;4.03;75.12;100232.81;5024226;28;20235;-65
2022/03/30 05:08:14;;;;;;;9.17;3.80;;;;;;;4.08;73.84;100232.91;5023590;28;20260;-65
2022/03/30 05:10:41;;;;;;;5.93;3.20;;;;;;;4.09;74.15;100231.19;5022766;28;20758;-63
2022/03/30 05:13:07;;;;;;;7.80;3.23;;;;;;;4.12;74.20;100234.72;5024983;28;20229;-65
2022/03/30 05:15:34;;;;;;;7.40;3.00;;;;;;;4.11;74.34;100227.78;5023596;28;20237;-64
2022/03/30 05:18:00;;;;;;;8.23;2.87;;;;;;;4.15;74.36;100233.91;5022528;28;20240;-65
2022/03/30 05:20:28;;;;;;;8.87;3.40;;;;;;;4.12;74.26;100231.25;5021719;28;20236;-65
2022/03/30 05:22:55;;;;;;;8.60;3.83;;;;;;;4.06;75.44;100225.06;5022776;28;20659;-65
2022/03/30 05:25:21;;;;;;;5.80;3.10;;;;;;;4.05;75.48;100236.31;5023604;28;20244;-65
2022/03/30 05:27:48;;;;;;;12.90;4.20;;;;;;;4.05;74.67;100233.72;5021224;28;20248;-64
2022/03/30 05:30:14;;;;;;;7.00;3.47;;;;;;;4.08;74.81;100232.91;5016103;28;20338;-65
2022/03/30 05:32:44;;;;;;;9.37;3.10;;;;;;;4.21;73.84;100240.06;5022445;28;20306;-63
2022/03/30 05:35:11;;;;;;;10.87;3.60;;;;;;;4.11;73.78;100242.47;5022465;28;20778;-64
2022/03/30 05:37:39;;;;;;;7.40;2.73;;;;;;;4.00;74.80;100237.06;5024508;28;20729;-63
2022/03/30 05:40:07;;;;;;;8.37;3.17;;;;;;;3.99;75.08;100237.94;5023057;28;20232;-65
2022/03/30 05:42:34;;;;;;;4.47;2.93;;;;;;;3.98;74.55;100241.38;5021488;28;20259;-65
2022/03/30 05:45:01;;;;;;;5.13;3.10;;;;;;;3.98;74.85;100237.06;5023616;28;20302;-65
2022/03/30 05:47:28;;;;;;;9.17;3.17;;;;;;;4.00;74.95;100237.06;5024201;28;20237;-65
2022/03/30 05:49:55;;;;;;;7.93;3.23;;;;;;;4.02;75.53;100232.78;5024208;28;20285;-68
2022/03/30 05:52:21;;;;;;;3.77;3.20;;;;;;;4.15;75.19;100233.91;5027167;28;20262;-64
2022/03/30 05:54:49;;;;;;;6.70;3.07;;;;;;;4.14;74.51;100233.03;5022290;28;20290;-64
2022/03/30 05:57:16;;;;;;;12.93;3.63;;;;;;;4.19;73.58;100231.38;5022730;28;20270;-65
2022/03/30 05:59:44;;;;;;;7.70;3.63;;;;;;;4.36;73.71;100238.56;5022378;28;20236;-66
2022/03/30 06:02:11;;;;;;;6.23;3.20;;;;;;;4.39;73.47;100233.41;5020280;28;20248;-64
2022/03/30 06:04:41;;;;;;;10.33;3.57;;;;;;;4.27;73.99;100224.56;5023646;28;20236;-65
2022/03/30 06:07:07;;;;;;;5.33;3.57;;;;;;;4.28;74.34;100230.63;5018504;28;20229;-66
2022/03/30 06:09:34;;;;;;;6.87;3.60;;;;;;;4.20;74.33;100233.09;5026937;28;20286;-64
2022/03/30 06:12:03;;;;;;;12.20;4.23;;;;;;;4.18;74.89;100234.81;5027765;28;20247;-66
2022/03/30 06:14:30;;;;;;;6.40;3.90;;;;;;;4.25;75.20;100231.47;5027026;28;20228;-64
2022/03/30 06:16:57;;;;;;;4.50;3.30;;;;;;;4.30;76.55;100228.94;5025686;28;20240;-65
2022/03/30 06:19:23;;;;;;;10.83;3.90;;;;;;;5.13;76.55;100230.16;5025180;28;20236;-64
2022/03/30 06:21:50;;;;;;;11.87;3.53;;;;;;;5.21;74.59;100229.38;5021562;28;20236;-65
2022/03/30 06:24:16;;;;;;;4.30;2.70;;;;;;;5.23;72.41;100225.09;5017323;28;20285;-67
2022/03/30 06:26:43;;;;;;;7.13;3.50;;;;;;;5.10;71.92;100225.78;5027142;28;20243;-66
2022/03/30 06:29:11;;;;;;;11.33;3.43;;;;;;;5.07;72.72;100220.53;5022492;28;20232;-64
2022/03/30 06:31:38;;;;;;;11.40;5.40;;;;;;;5.04;72.88;100220.47;5027675;28;20438;-66
2022/03/30 06:34:04;;;;;;;10.33;3.60;;;;;;;5.01;72.61;100218.72;5025492;28;20239;-64
2022/03/30 06:36:31;;;;;;;9.87;3.40;;;;;;;4.89;72.09;100221.16;5026898;28;20650;-66
2022/03/30 06:38:58;;;;;;;17.70;3.73;;;;;;;5.11;75.08;100216.22;5027596;28;20237;-67
2022/03/30 06:41:25;;;;;;;3.83;3.23;;;;;;;5.16;71.71;100214.56;5027154;28;20237;-66
2022/03/30 06:43:52;;;;;;;5.17;3.40;;;;;;;5.33;71.19;100212.16;5027801;28;20248;-66
2022/03/30 06:46:20;;;;;;;24.27;7.50;;;;;;;5.36;70.86;100212.19;5025105;28;20759;-66
2022/03/30 06:48:47;;;;;;;9.13;4.43;;;;;;;5.37;71.11;100214.84;5014510;28;20622;-66
2022/03/30 06:51:14;;;;;;;8.03;3.53;;;;;;;5.35;70.69;100206.13;5020563;28;20247;-65
2022/03/30 06:53:40;;;;;;;10.77;4.00;;;;;;;5.44;70.21;100208.84;5026764;28;20298;-65
2022/03/30 06:56:07;;;;;;;8.97;3.70;;;;;;;5.38;70.50;100210.50;5027754;28;20262;-66
2022/03/30 06:58:33;;;;;;;8.43;3.60;;;;;;;5.36;70.98;100212.19;5026756;28;20236;-67
2022/03/30 07:01:00;;;;;;;10.73;4.07;;;;;;;5.37;71.46;100204.44;5027128;28;20244;-62
2022/03/30 07:03:28;;;;;;;8.10;3.80;;;;;;;5.40;71.77;100211.38;5026743;28;20228;-65
2022/03/30 07:05:54;;;;;;;8.17;4.00;;;;;;;5.55;70.58;100192.47;5027367;28;20243;-65
2022/03/30 07:11:05;;;;;;;6.70;3.43;;;;;;;5.70;69.54;100201.28;5020129;28;20243;-66
2022/03/30 07:13:31;;;;;;;11.03;4.30;;;;;;;5.84;69.44;100196.22;5026926;28;20335;-64
2022/03/30 07:15:57;;;;;;;6.63;4.13;;;;;;;5.85;69.09;100197.97;5026424;28;20282;-65
2022/03/30 07:18:24;;;;;;;8.67;3.60;;;;;;;5.78;69.42;100196.16;5021209;28;20233;-65
2022/03/30 07:20:51;;;;;;;8.63;4.03;;;;;;;6.16;71.34;100193.06;5023582;28;20229;-66
2022/03/30 07:23:18;;;;;;;9.30;3.33;;;;;;;6.17;69.44;100194.78;5024981;28;20228;-65
2022/03/30 07:25:45;;;;;;;8.10;3.73;;;;;;;6.27;67.76;100191.41;5026859;28;20243;-68
2022/03/30 07:28:12;;;;;;;6.20;3.60;;;;;;;6.32;67.10;100186.22;5026196;28;20240;-68
2022/03/30 07:30:38;;;;;;;11.80;3.50;;;;;;;6.36;66.61;100185.41;5026557;28;20582;-67
2022/03/30 07:33:06;;;;;;;8.33;3.30;;;;;;;6.29;66.75;100188.81;5023402;28;20256;-71
2022/03/30 07:35:33;;;;;;;10.97;4.43;;;;;;;6.20;66.56;100189.63;5022940;28;20247;-67
2022/03/30 07:38:01;;;;;;;9.73;4.23;;;;;;;6.36;66.25;100190.63;5033926;28;20289;-69
2022/03/30 07:40:29;;;;;;;9.23;3.63;;;;;;;6.50;66.38;100193.31;5025490;28;20228;-69
2022/03/30 07:42:56;;;;;;;7.90;3.87;;;;;;;6.51;65.81;100190.72;5024140;28;20237;-70
2022/03/30 07:45:24;;;;;;;7.07;3.23;;;;;;;6.37;64.74;100194.97;5026724;28;20228;-68
2022/03/30 07:47:51;;;;;;;7.33;3.60;;;;;;;6.44;64.87;100194.16;5027225;28;20248;-68
2022/03/30 07:50:18;;;;;;;3.07;2.03;;;;;;;6.50;64.43;100188.97;5025227;28;20235;-71
2022/03/30 07:52:45;;;;;;;8.50;3.40;;;;;;;6.79;63.75;100189.16;5023383;28;20274;-67
2022/03/30 07:55:13;;;;;;;12.80;3.33;;;;;;;7.09;61.75;100188.44;5022153;28;20229;-66
2022/03/30 07:57:42;;;;;;;9.83;3.43;;;;;;;7.22;61.20;100181.50;5024770;28;20244;-64
2022/03/30 08:00:10;;;;;;;6.27;3.07;;;;;;;7.31;60.84;100192.00;5026096;28;20264;-65
2022/03/30 08:02:36;;;;;;;4.43;2.43;;;;;;;7.03;59.90;100185.78;5025378;28;20664;-66
2022/03/30 08:05:03;;;;;;;8.73;3.00;;;;;;;7.17;60.94;100186.72;5026564;28;20225;-66
2022/03/30 08:07:30;;;;;;;9.23;3.10;;;;;;;7.43;62.05;100185.94;5031294;28;20239;-64
2022/03/30 08:09:56;;;;;;;3.60;2.67;;;;;;;7.62;63.15;100185.13;5027479;28;20308;-65
2022/03/30 08:12:25;;;;;;;9.13;2.53;;;;;;;7.72;61.56;100192.94;5022597;28;20224;-65
2022/03/30 08:14:52;;;;;;;8.90;2.73;;;;;;;7.48;58.96;100181.59;5024502;28;20229;-66
2022/03/30 08:17:19;;;;;;;6.53;2.93;;;;;;;7.61;59.97;100175.50;5016532;28;20241;-64
2022/03/30 08:19:46;;;;;;;3.80;2.00;;;;;;;7.65;58.31;100179.91;5024750;28;20235;-65
2022/03/30 08:22:26;;;;;;;4.57;2.10;;;;;;;7.70;57.48;100179.03;5024787;28;20240;-65
2022/03/30 08:24:53;;;;;;;6.53;2.63;;;;;;;7.74;56.88;100181.66;5023394;28;20750;-70
2022/03/30 08:27:22;;;;;;;7.93;3.00;;;;;;;7.75;56.37;100182.50;5022715;28;20251;-64
2022/03/30 08:29:51;;;;;;;7.93;3.10;;;;;;;7.80;55.81;100181.66;5028233;28;20232;-64
2022/03/30 08:32:19;;;;;;;8.97;3.07;;;;;;;7.73;58.47;100190.38;5023508;28;20232;-65
2022/03/30 08:34:45;;;;;;;4.90;2.50;;;;;;;7.80;57.07;100180.78;5024320;28;20232;-64
2022/03/30 08:37:12;;;;;;;7.90;3.00;;;;;;;8.03;57.82;100179.06;5024879;28;20627;-65
2022/03/30 08:39:39;;;;;;;5.20;2.53;;;;;;;8.00;53.67;100175.56;5024927;28;20225;-63
2022/03/30 08:42:07;;;;;;;5.77;2.53;;;;;;;8.10;53.47;100175.56;5025589;28;20285;-65
2022/03/30 08:44:34;;;;;;;8.00;2.00;;;;;;;8.06;52.51;100184.28;5024464;28;20232;-64
2022/03/30 08:47:02;;;;;;;7.13;2.37;;;;;;;8.26;54.97;100180.81;5024615;28;20233;-64
2022/03/30 08:49:33;;;;;;;4.97;2.83;;;;;;;8.04;52.33;100178.19;5016159;28;20244;-63
2022/03/30 08:52:00;;;;;;;5.17;2.47;;;;;;;8.09;51.64;100179.06;5024642;28;20241;-64
2022/03/30 08:54:27;;;;;;;4.87;2.40;;;;;;;8.21;52.61;100183.41;5020928;28;20221;-65
2022/03/30 08:56:53;;;;;;;7.07;2.47;;;;;;;8.04;50.76;100175.59;5024502;28;20236;-63
2022/03/30 08:59:22;;;;;;;7.07;2.70;;;;;;;7.94;50.86;100186.91;5018326;28;20224;-64
2022/03/30 09:01:49;;;;;;;4.03;2.33;;;;;;;8.05;51.42;100182.56;5018619;28;20243;-61
2022/03/30 09:04:19;;;;;;;5.67;2.70;;;;;;;8.20;51.75;100175.56;5020584;28;20603;-64
2022/03/30 09:06:47;;;;;;;7.83;2.50;;;;;;;8.28;51.59;100174.72;5020593;28;20623;-63
2022/03/30 09:09:15;;;;;;;7.23;2.80;;;;;;;8.29;51.25;100173.84;5023181;28;20236;-65
2022/03/30 09:11:52;;;;;;;5.97;2.23;;;;;;;8.31;51.09;100179.03;5021127;28;20268;-64
2022/03/30 09:14:20;;;;;;;4.87;2.40;;;;;;;8.36;52.73;100175.56;5024115;28;20510;-65
2022/03/30 09:16:49;;;;;;;5.83;2.40;;;;;;;8.49;54.03;100172.97;5023995;28;20263;-64
2022/03/30 09:19:20;;;;;;;4.57;2.63;;;;;;;8.46;55.83;100168.63;5019201;28;20647;-65
2022/03/30 09:21:48;;;;;;;7.23;2.40;;;;;;;8.51;53.88;100172.09;5020857;28;20300;-64
2022/03/30 09:24:18;;;;;;;5.87;2.40;;;;;;;8.00;49.48;100163.41;5022147;28;20875;-62
2022/03/30 09:26:44;;;;;;;5.37;2.33;;;;;;;8.01;49.15;100165.13;5022785;28;20272;-65
2022/03/30 09:29:12;;;;;;;5.63;2.00;;;;;;;8.00;49.14;100163.41;5025177;28;20239;-69
2022/03/30 09:31:41;;;;;;;6.03;1.80;;;;;;;8.09;49.77;100158.16;5026875;28;20236;-67
2022/03/30 09:34:09;;;;;;;3.87;1.73;;;;;;;8.43;47.76;100158.16;5022676;28;20240;-67
2022/03/30 09:36:38;;;;;;;5.97;1.70;;;;;;;8.60;45.19;100168.59;5023744;28;20240;-66
2022/03/30 09:39:06;;;;;;;4.43;1.83;;;;;;;8.56;45.54;100153.75;5020803;28;20247;-65
2022/03/30 09:41:47;;;;;;;3.17;1.97;;;;;;;8.70;47.49;100151.09;5021625;28;20240;-65
2022/03/30 09:44:14;;;;;;;8.50;2.37;;;;;;;8.70;48.39;100151.09;5031283;28;20330;-69
2022/03/30 09:46:51;;;;;;;10.80;2.43;;;;;;;8.66;49.08;100159.84;5022122;28;21035;-64
2022/03/30 09:49:32;;;;;;;4.63;1.87;;;;;;;8.72;46.69;100155.47;5021457;28;20236;-69
2022/03/30 09:52:00;;;;;;;4.37;1.80;;;;;;;8.74;47.30;100151.13;5021228;28;20356;-70
2022/03/30 09:54:40;;;;;;;8.63;2.83;;;;;;;8.75;50.36;100154.59;5020933;28;20294;-65
2022/03/30 09:57:16;;;;;;;5.20;2.17;;;;;;;8.96;51.56;100154.53;5020586;28;20294;-67
2022/03/30 10:00:04;;;;;;;3.93;2.00;;;;;;;8.78;51.65;100149.34;5015970;28;20244;-62
2022/03/30 10:02:32;;;;;;;5.57;2.10;;;;;;;8.85;49.40;100140.59;5022765;28;20239;-68
2022/03/30 10:04:59;;;;;;;3.07;2.13;;;;;;;8.51;48.23;100143.31;5022455;28;20232;-66
2022/03/30 10:07:27;;;;;;;8.67;2.43;;;;;;;8.92;50.25;100139.72;5020453;28;20286;-65
2022/03/30 10:09:57;;;;;;;4.07;2.23;;;;;;;8.98;50.44;100141.41;5023973;28;20699;-66
2022/03/30 10:12:24;;;;;;;6.20;2.47;;;;;;;9.04;49.66;100137.03;5018731;28;20256;-66
2022/03/30 10:14:50;;;;;;;10.10;2.70;;;;;;;9.04;48.31;100121.31;5021939;28;20233;-67
2022/03/30 10:17:18;;;;;;;11.27;3.17;;;;;;;9.33;45.58;100125.53;5022414;28;20665;-66
2022/03/30 10:19:46;;;;;;;8.33;2.93;;;;;;;9.10;45.78;100127.41;5021810;28;20236;-65
2022/03/30 10:22:20;;;;;;;3.70;2.30;;;;;;;9.11;46.94;100119.53;5021346;28;20232;-65
2022/03/30 10:24:56;;;;;;;5.07;2.33;;;;;;;8.91;47.25;100132.72;5021482;28;20330;-64
2022/03/30 10:27:28;;;;;;;3.20;1.70;;;;;;;8.77;46.02;100126.66;5019602;28;20228;-65
2022/03/30 10:29:56;;;;;;;3.30;1.43;;;;;;;8.90;49.93;100120.50;5017686;28;20228;-61
2022/03/30 10:32:24;;;;;;;3.60;1.53;;;;;;;8.72;46.40;100118.81;5023603;28;20239;-63
2022/03/30 10:35:00;;;;;;;7.33;2.20;;;;;;;8.74;48.39;100126.66;5019234;28;20232;-63
2022/03/30 10:37:28;;;;;;;5.97;2.30;;;;;;;8.63;45.77;100117.97;5022574;28;20232;-63
2022/03/30 10:39:58;;;;;;;5.57;2.10;;;;;;;8.77;46.75;100116.19;5023211;28;20303;-62
2022/03/30 10:42:24;;;;;;;6.00;2.03;;;;;;;9.06;51.01;100105.63;5019763;28;22874;-62
2022/03/30 10:44:57;;;;;;;4.13;2.03;;;;;;;9.15;48.53;100108.16;5022298;28;20240;-62
2022/03/30 10:47:25;;;;;;;6.30;2.47;;;;;;;9.31;48.06;100103.72;5023257;28;20229;-61
2022/03/30 10:49:54;;;;;;;8.97;2.00;;;;;;;9.43;48.34;100105.38;5021194;28;20229;-63
2022/03/30 10:52:47;;;;;;;8.37;3.67;;;;;;;9.43;46.64;100108.88;5021293;28;20465;-60
2022/03/30 10:55:38;;;;;;;2.73;1.77;;;;;;;9.28;45.68;100108.97;5024789;28;20232;-62
2022/03/30 10:58:06;;;;;;;7.70;2.27;;;;;;;9.26;45.67;100095.88;5025218;28;20236;-62
2022/03/30 11:00:36;;;;;;;4.67;2.00;;;;;;;9.36;47.80;100107.16;5026326;28;20297;-63
2022/03/30 11:03:07;;;;;;;9.03;2.30;;;;;;;9.25;47.83;100101.13;5023381;28;20259;-61
2022/03/30 11:05:35;;;;;;;9.10;3.17;;;;;;;9.62;46.02;100100.88;5024375;28;20236;-61
2022/03/30 11:08:02;;;;;;;3.27;1.57;;;;;;;9.77;45.64;100092.91;5024304;28;20272;-61
2022/03/30 11:10:30;;;;;;;5.10;2.60;;;;;;;9.83;44.11;100091.97;5024518;28;20240;-61
2022/03/30 11:13:11;;;;;;;5.33;2.17;;;;;;;9.86;46.80;100098.06;5024595;28;20256;-59
2022/03/30 11:16:11;;;;;;;4.65;2.30;;;;;;;9.94;44.67;100098.88;5022289;28;20917;-62
2022/03/30 11:19:02;;;;;;;2.57;1.93;;;;;;;9.81;45.54;100099.88;4959491;28;20654;-61
2022/03/30 11:21:30;;;;;;;6.67;2.00;;;;;;;9.85;44.22;100090.22;5024302;28;20310;-62
2022/03/30 11:24:02;;;;;;;2.90;1.90;;;;;;;9.77;44.04;100098.16;5022022;28;20266;-60
2022/03/30 11:27:21;;;;;;;7.80;2.93;;;;;;;9.61;45.52;100091.28;5021953;28;20532;-61
2022/03/30 11:29:55;;;;;;;5.40;2.53;;;;;;;9.78;44.26;100089.41;5019969;28;20431;-60
2022/03/30 11:32:54;;;;;;;12.40;3.40;;;;;;;9.68;45.47;100092.97;5023364;28;20693;-59
2022/03/30 11:35:24;;;;;;;8.33;1.93;;;;;;;9.75;44.28;100090.28;5028018;28;20583;-59
2022/03/30 11:38:02;;;;;;;7.10;2.23;;;;;;;9.77;46.59;100087.66;5024064;28;20256;-58
2022/03/30 11:40:32;;;;;;;3.00;1.70;;;;;;;9.63;44.11;100077.28;5024281;28;20941;-58
2022/03/30 11:42:59;;;;;;;6.87;2.50;;;;;;;9.75;44.85;100078.94;5025104;28;20244;-58